Time;durP1;ratioP1;P1;durP2;ratioP2;P2;SDS_P1;SDS_P2;PMS_P1;PMS_P2;Temp;Humidity;BMP_temperature;BMP_pressure;BME280_temperature;BME280_humidity;BME280_pressure;Samples;Min_cycle;Max_cycle;Signal;HPM_P1;HPM_P2
2021/08/24 05:04:58;;;;;;;11.17;8.80;;;15.10;98.30;;;;;;5131145;22;20467;-80
2021/08/24 05:07:05;;;;;;;10.03;7.93;;;15.10;98.30;;;;;;5152823;23;20420;-80
2021/08/24 05:09:08;;;;;;;12.17;8.00;;;15.10;98.30;;;;;;5153252;23;20768;-80
2021/08/24 05:11:11;;;;;;;11.87;8.43;;;15.10;98.30;;;;;;5155194;23;20424;-80
2021/08/24 05:13:15;;;;;;;10.00;8.20;;;15.20;98.30;;;;;;5145688;23;20427;-80
2021/08/24 05:15:18;;;;;;;9.13;7.93;;;15.30;98.30;;;;;;5153363;23;20452;-80
2021/08/24 05:17:21;;;;;;;9.80;8.00;;;15.30;98.30;;;;;;5146254;23;21018;-80
2021/08/24 05:19:24;;;;;;;13.33;8.63;;;15.30;98.30;;;;;;5146047;23;20464;-80
2021/08/24 05:21:29;;;;;;;8.83;7.50;;;15.30;98.30;;;;;;5145745;23;20425;-80
2021/08/24 05:23:33;;;;;;;7.87;7.07;;;15.40;98.30;;;;;;5145551;23;20443;-80
2021/08/24 05:25:36;;;;;;;9.80;8.60;;;15.40;98.30;;;;;;5145585;23;20449;-80
2021/08/24 05:27:39;;;;;;;13.43;8.60;;;15.40;98.30;;;;;;5153264;23;20508;-81
2021/08/24 05:29:42;;;;;;;10.47;7.40;;;15.40;98.30;;;;;;5154563;23;20413;-80
2021/08/24 05:31:45;;;;;;;10.67;8.03;;;15.50;98.30;;;;;;5154241;23;20463;-80
2021/08/24 05:33:48;;;;;;;10.20;8.23;;;15.60;98.30;;;;;;5154499;23;20460;-80
2021/08/24 05:35:51;;;;;;;12.50;8.17;;;15.60;98.30;;;;;;5145740;23;20539;-80
2021/08/24 05:37:56;;;;;;;12.43;8.47;;;15.70;98.30;;;;;;5154606;23;20482;-81
2021/08/24 05:39:59;;;;;;;8.50;7.60;;;15.80;98.30;;;;;;5146391;23;20416;-80
2021/08/24 05:42:03;;;;;;;9.53;7.60;;;15.90;98.30;;;;;;5146015;23;20798;-80
2021/08/24 05:44:07;;;;;;;9.27;7.30;;;15.90;98.30;;;;;;5153408;23;20445;-80
2021/08/24 05:46:12;;;;;;;8.23;7.43;;;15.90;98.30;;;;;;5145582;23;20445;-80
2021/08/24 05:48:15;;;;;;;11.10;7.53;;;16.00;98.30;;;;;;5152787;23;20421;-81
2021/08/24 05:50:18;;;;;;;8.63;7.40;;;16.10;98.30;;;;;;5152598;23;20906;-80
2021/08/24 05:52:21;;;;;;;8.80;7.57;;;16.20;98.30;;;;;;5143437;23;20815;-80
2021/08/24 05:54:26;;;;;;;10.90;7.60;;;16.30;98.30;;;;;;5143000;23;20535;-81
2021/08/24 05:56:29;;;;;;;8.20;7.23;;;16.30;98.30;;;;;;5143021;23;20958;-80
2021/08/24 05:58:31;;;;;;;10.87;7.33;;;16.30;98.30;;;;;;5143868;23;20455;-81
2021/08/24 06:00:34;;;;;;;8.80;6.90;;;16.40;98.30;;;;;;5143127;23;20431;-80
2021/08/24 06:02:46;;;;;;;8.63;6.70;;;16.50;98.30;;;;;;5144335;23;20436;-80
2021/08/24 06:04:52;;;;;;;9.70;7.30;;;16.60;98.30;;;;;;5151604;23;21156;-81
2021/08/24 06:06:55;;;;;;;11.63;9.10;;;16.70;98.30;;;;;;5142429;23;20934;-80
2021/08/24 06:08:59;;;;;;;11.47;7.20;;;16.90;98.30;;;;;;5151440;23;20817;-80
2021/08/24 06:11:03;;;;;;;9.03;7.70;;;16.90;98.30;;;;;;5143279;23;20433;-80
2021/08/24 06:13:07;;;;;;;9.37;7.60;;;17.00;98.30;;;;;;5143637;23;20503;-81
2021/08/24 06:15:11;;;;;;;9.90;6.90;;;16.90;98.30;;;;;;5151062;23;20845;-80
2021/08/24 06:17:14;;;;;;;10.67;7.00;;;16.90;98.30;;;;;;5142831;23;20472;-80
2021/08/24 06:19:17;;;;;;;10.60;6.97;;;16.90;98.30;;;;;;5151698;23;20412;-81
2021/08/24 06:21:20;;;;;;;10.33;7.03;;;16.90;98.30;;;;;;5143782;23;20457;-80
2021/08/24 06:23:23;;;;;;;11.07;7.10;;;16.90;98.30;;;;;;5155881;23;20564;-80
2021/08/24 06:25:27;;;;;;;10.50;6.70;;;17.10;98.30;;;;;;5168900;23;20472;-80
2021/08/24 06:27:31;;;;;;;8.70;6.73;;;17.10;98.30;;;;;;5161919;23;20433;-81
2021/08/24 06:29:34;;;;;;;7.93;7.03;;;17.00;98.30;;;;;;5160973;23;20488;-80
2021/08/24 06:31:41;;;;;;;9.73;8.00;;;17.10;98.30;;;;;;5168971;23;20428;-81
2021/08/24 06:33:45;;;;;;;12.07;6.07;;;17.20;98.30;;;;;;5160634;23;20476;-81
2021/08/24 06:35:48;;;;;;;8.57;7.10;;;17.30;98.30;;;;;;5159848;23;20428;-80
2021/08/24 06:37:51;;;;;;;19.13;7.10;;;17.20;98.30;;;;;;5162207;23;20980;-80
2021/08/24 06:39:54;;;;;;;8.00;6.40;;;17.20;98.30;;;;;;5157869;23;20421;-80
2021/08/24 06:41:57;;;;;;;7.40;6.60;;;17.40;98.30;;;;;;5149499;23;20429;-80
2021/08/24 06:44:02;;;;;;;11.00;6.40;;;17.50;98.30;;;;;;5148202;23;20495;-80
2021/08/24 06:46:05;;;;;;;9.23;6.17;;;17.60;98.30;;;;;;5149003;23;20489;-80
2021/08/24 06:48:08;;;;;;;9.40;6.20;;;17.70;98.30;;;;;;5156956;23;20460;-80
2021/08/24 06:50:12;;;;;;;8.83;6.07;;;17.70;98.30;;;;;;5157789;23;20468;-80
2021/08/24 06:52:15;;;;;;;8.37;6.10;;;17.70;98.30;;;;;;5157202;23;20420;-80
2021/08/24 06:54:18;;;;;;;9.80;6.73;;;17.80;98.30;;;;;;5147698;23;20448;-80
2021/08/24 06:56:24;;;;;;;8.57;6.23;;;17.90;98.30;;;;;;5148583;23;21058;-80
2021/08/24 06:58:27;;;;;;;7.40;5.90;;;18.00;98.30;;;;;;5148474;23;20413;-80
2021/08/24 07:00:31;;;;;;;9.23;5.80;;;18.10;98.30;;;;;;5156352;23;20423;-81
2021/08/24 07:02:34;;;;;;;6.97;6.20;;;18.30;98.30;;;;;;5148315;23;20433;-80
2021/08/24 07:04:37;;;;;;;7.50;6.20;;;18.30;98.30;;;;;;5147606;23;20463;-80
2021/08/24 07:06:45;;;;;;;6.37;5.73;;;18.30;98.30;;;;;;5156159;23;20532;-80
2021/08/24 07:08:50;;;;;;;7.83;5.70;;;18.40;98.30;;;;;;5148268;23;20419;-80
2021/08/24 07:10:53;;;;;;;7.10;5.57;;;18.50;98.30;;;;;;5148144;23;20500;-80
2021/08/24 07:12:56;;;;;;;7.20;5.47;;;18.60;98.30;;;;;;5148058;23;20460;-80
2021/08/24 07:14:59;;;;;;;7.50;6.00;;;18.60;98.30;;;;;;5155754;23;20802;-80
2021/08/24 07:17:04;;;;;;;10.27;6.00;;;18.50;98.30;;;;;;5155759;23;20451;-80
2021/08/24 07:19:06;;;;;;;7.07;5.70;;;18.50;98.30;;;;;;5155907;23;20429;-80
2021/08/24 07:21:13;;;;;;;9.47;6.00;;;18.50;98.30;;;;;;5156250;23;20427;-80
2021/08/24 07:23:17;;;;;;;6.73;5.70;;;18.50;98.30;;;;;;5155785;23;20430;-80
2021/08/24 07:25:22;;;;;;;6.60;5.77;;;18.60;98.30;;;;;;5147078;23;20484;-80
2021/08/24 07:27:25;;;;;;;11.27;5.60;;;18.60;98.30;;;;;;5155560;23;20413;-80
2021/08/24 07:29:32;;;;;;;10.50;5.53;;;18.60;98.30;;;;;;5155847;23;20427;-80
2021/08/24 07:31:37;;;;;;;6.60;5.80;;;18.60;98.30;;;;;;5147604;23;20724;-80
2021/08/24 07:33:42;;;;;;;7.33;5.73;;;18.80;98.30;;;;;;5155336;23;20436;-80
2021/08/24 07:35:47;;;;;;;11.60;8.67;;;19.00;98.30;;;;;;5155711;23;20431;-80
2021/08/24 07:37:50;;;;;;;14.93;11.33;;;19.10;98.30;;;;;;5147508;23;20440;-80
2021/08/24 07:39:53;;;;;;;16.03;11.20;;;19.10;98.30;;;;;;5155124;23;20509;-80
2021/08/24 07:41:56;;;;;;;12.40;8.30;;;19.10;98.30;;;;;;5147437;23;20940;-81
2021/08/24 07:43:59;;;;;;;8.00;6.57;;;19.10;98.30;;;;;;5155145;23;20421;-81
2021/08/24 07:46:02;;;;;;;6.50;5.50;;;19.30;98.30;;;;;;5155122;23;20917;-81
2021/08/24 07:48:06;;;;;;;6.27;5.17;;;19.50;98.30;;;;;;5155090;23;20916;-80
2021/08/24 07:50:10;;;;;;;11.00;8.10;;;19.60;98.30;;;;;;5155045;23;20817;-81
2021/08/24 07:52:15;;;;;;;7.37;5.53;;;19.80;98.30;;;;;;5155312;23;20833;-81
2021/08/24 07:54:18;;;;;;;7.47;5.70;;;19.80;98.30;;;;;;5154794;23;21228;-80
2021/08/24 07:56:22;;;;;;;9.17;5.90;;;19.60;98.30;;;;;;5146374;23;20460;-80
2021/08/24 07:58:24;;;;;;;9.17;7.20;;;19.40;98.30;;;;;;5155029;23;20465;-80
2021/08/24 08:00:27;;;;;;;9.47;7.20;;;19.40;98.30;;;;;;5154316;23;20463;-81
2021/08/24 08:02:30;;;;;;;10.70;9.00;;;19.60;98.30;;;;;;5146889;23;21054;-80
2021/08/24 08:04:34;;;;;;;8.40;5.77;;;19.80;98.30;;;;;;5146632;23;20511;-80
2021/08/24 08:06:39;;;;;;;7.00;5.20;;;19.80;98.30;;;;;;5147061;23;20431;-81
2021/08/24 08:08:42;;;;;;;7.60;5.70;;;20.00;98.30;;;;;;5154807;23;20922;-80
2021/08/24 08:10:45;;;;;;;5.87;4.87;;;20.20;98.30;;;;;;5154037;23;20496;-81
2021/08/24 08:12:48;;;;;;;7.00;5.80;;;20.20;98.30;;;;;;5154561;23;20503;-81
2021/08/24 08:14:51;;;;;;;6.23;5.10;;;20.30;98.30;;;;;;5153669;23;20447;-80
2021/08/24 08:16:54;;;;;;;6.23;4.87;;;20.40;98.30;;;;;;5146137;23;20503;-80
2021/08/24 08:18:57;;;;;;;5.53;4.57;;;20.50;98.30;;;;;;5146682;23;20429;-80
2021/08/24 08:21:00;;;;;;;21.10;13.90;;;20.70;98.30;;;;;;5146597;23;20460;-80
2021/08/24 08:23:07;;;;;;;87.83;59.17;;;20.60;98.30;;;;;;5154304;23;20423;-81
2021/08/24 08:25:12;;;;;;;13.90;10.87;;;20.80;98.30;;;;;;5145686;23;20532;-81
2021/08/24 08:27:15;;;;;;;5.30;3.90;;;20.90;98.30;;;;;;5146187;23;20500;-81
2021/08/24 08:29:18;;;;;;;5.40;4.37;;;20.70;98.30;;;;;;5145709;23;20511;-80
2021/08/24 08:31:20;;;;;;;6.07;4.93;;;20.50;98.30;;;;;;5145353;23;20532;-81
2021/08/24 08:33:23;;;;;;;9.53;6.60;;;20.60;98.30;;;;;;5153472;23;20421;-80
2021/08/24 08:35:27;;;;;;;4.83;3.93;;;20.40;98.30;;;;;;5145456;23;20459;-80
2021/08/24 08:37:30;;;;;;;4.80;3.80;;;20.60;98.30;;;;;;5145279;23;20447;-80
2021/08/24 08:39:34;;;;;;;5.30;4.23;;;20.80;98.30;;;;;;5154005;23;20421;-80
2021/08/24 08:41:43;;;;;;;4.50;3.57;;;21.10;98.30;;;;;;5153471;23;20907;-81
2021/08/24 08:43:55;;;;;;;6.03;4.70;;;21.10;98.30;;;;;;5153095;23;21152;-80
2021/08/24 08:46:02;;;;;;;6.87;5.80;;;20.80;98.30;;;;;;5146324;23;20512;-81
2021/08/24 08:48:41;;;;;;;15.37;10.90;;;20.90;98.30;;;;;;5145279;23;20881;-81
2021/08/24 08:50:49;;;;;;;5.00;3.90;;;20.90;96.90;;;;;;5145468;23;20484;-81
2021/08/24 08:52:57;;;;;;;5.57;4.43;;;21.00;97.30;;;;;;5152984;23;20452;-80
2021/08/24 08:55:24;;;;;;;5.53;3.80;;;21.20;97.60;;;;;;5153104;23;20433;-80
2021/08/24 08:57:32;;;;;;;6.43;4.50;;;21.30;96.30;;;;;;5153140;23;20417;-80
2021/08/24 08:59:45;;;;;;;5.00;3.83;;;21.40;96.20;;;;;;5145152;23;20412;-81
2021/08/24 09:01:57;;;;;;;4.20;3.80;;;21.60;96.10;;;;;;5153466;23;20409;-80
2021/08/24 09:04:16;;;;;;;6.23;5.30;;;21.80;95.40;;;;;;5144306;23;20417;-81
2021/08/24 09:06:22;;;;;;;5.77;4.70;;;22.00;94.00;;;;;;5145589;23;20469;-81
2021/08/24 09:08:27;;;;;;;5.20;4.40;;;22.10;94.20;;;;;;5145022;23;20408;-81
2021/08/24 09:10:39;;;;;;;5.67;4.30;;;22.30;92.70;;;;;;5145922;23;20432;-81
2021/08/24 09:12:47;;;;;;;5.07;3.80;;;22.50;93.00;;;;;;5145009;23;20412;-80
2021/08/24 09:14:55;;;;;;;4.40;4.00;;;22.50;92.30;;;;;;5144429;23;20452;-81
2021/08/24 09:17:02;;;;;;;4.77;3.90;;;22.60;92.90;;;;;;5143894;23;21068;-81
2021/08/24 09:19:14;;;;;;;14.43;11.60;;;22.70;92.90;;;;;;5141254;23;20440;-81
2021/08/24 09:21:23;;;;;;;26.23;22.50;;;22.70;92.60;;;;;;5141522;23;20527;-81
2021/08/24 09:23:26;;;;;;;9.30;6.93;;;22.80;92.00;;;;;;5141183;23;20420;-81
2021/08/24 09:25:42;;;;;;;6.80;4.70;;;22.80;91.40;;;;;;5149558;23;20451;-81
2021/08/24 09:27:52;;;;;;;6.10;5.00;;;22.80;91.50;;;;;;5141588;23;20409;-81
2021/08/24 09:29:57;;;;;;;5.83;4.90;;;23.00;91.40;;;;;;5150143;23;20430;-81
2021/08/24 09:32:02;;;;;;;4.60;4.03;;;23.10;89.70;;;;;;5150064;23;20432;-81
2021/08/24 09:34:05;;;;;;;6.00;4.90;;;22.90;89.00;;;;;;5141201;23;20448;-81
2021/08/24 09:36:08;;;;;;;4.63;4.13;;;23.00;90.20;;;;;;5142234;23;20499;-81
2021/08/24 09:38:15;;;;;;;5.37;4.20;;;23.20;90.60;;;;;;5150924;23;20448;-81
2021/08/24 09:40:39;;;;;;;5.33;4.20;;;23.20;90.00;;;;;;5143266;23;20424;-81
2021/08/24 09:42:46;;;;;;;6.60;4.10;;;23.40;90.10;;;;;;5143239;23;20445;-81
2021/08/24 09:44:49;;;;;;;4.73;4.23;;;23.40;89.40;;;;;;5142245;23;20448;-80
2021/08/24 09:46:54;;;;;;;7.97;4.60;;;23.20;90.40;;;;;;5150640;23;20425;-81
2021/08/24 09:49:03;;;;;;;5.70;4.93;;;23.30;90.10;;;;;;5150636;23;20420;-81
2021/08/24 09:51:38;;;;;;;4.97;4.20;;;23.30;89.60;;;;;;5150942;23;20413;-81
2021/08/24 09:53:41;;;;;;;4.83;4.13;;;23.30;88.80;;;;;;5059813;23;20916;-80
2021/08/24 09:55:49;;;;;;;4.43;3.90;;;23.40;89.60;;;;;;5150961;23;20749;-81
2021/08/24 09:57:56;;;;;;;6.90;4.20;;;23.40;87.20;;;;;;5143623;23;20448;-81
2021/08/24 10:00:02;;;;;;;4.60;4.10;;;23.40;88.10;;;;;;5152077;23;20780;-81
2021/08/24 10:02:07;;;;;;;5.50;4.00;;;23.70;88.40;;;;;;5143674;23;20413;-81
2021/08/24 10:04:10;;;;;;;5.73;4.50;;;23.60;86.50;;;;;;5142832;23;20955;-81
2021/08/24 10:06:24;;;;;;;6.63;4.47;;;23.80;86.60;;;;;;5151968;23;20401;-81
2021/08/24 10:08:30;;;;;;;4.80;4.27;;;24.00;86.80;;;;;;5143080;23;20416;-80
2021/08/24 10:10:36;;;;;;;5.50;4.00;;;24.00;86.40;;;;;;5143281;23;20805;-81
2021/08/24 10:12:40;;;;;;;5.70;3.80;;;24.20;86.30;;;;;;5143257;23;20417;-81
2021/08/24 10:14:43;;;;;;;5.57;4.27;;;24.30;85.50;;;;;;5143212;23;20448;-81
2021/08/24 10:16:48;;;;;;;4.57;3.70;;;24.40;84.10;;;;;;5143842;23;21060;-80
2021/08/24 10:19:05;;;;;;;5.50;4.63;;;24.30;83.40;;;;;;5143619;23;20539;-80
2021/08/24 10:21:13;;;;;;;5.27;4.13;;;23.60;84.90;;;;;;5143811;23;20423;-81
2021/08/24 10:23:25;;;;;;;5.30;4.10;;;23.90;85.60;;;;;;5143448;23;20448;-81
2021/08/24 10:25:31;;;;;;;5.47;4.40;;;23.70;84.20;;;;;;5143407;23;20781;-80
2021/08/24 10:27:37;;;;;;;4.60;3.47;;;23.40;83.60;;;;;;5144141;23;20492;-80
2021/08/24 10:29:42;;;;;;;4.60;4.07;;;23.30;84.70;;;;;;5143564;23;20488;-81
2021/08/24 10:31:52;;;;;;;4.37;3.70;;;23.70;83.70;;;;;;5143489;23;20435;-80
2021/08/24 10:33:59;;;;;;;7.10;3.83;;;23.90;84.70;;;;;;5151646;23;20428;-81
2021/08/24 10:36:07;;;;;;;5.23;4.13;;;24.30;84.90;;;;;;5143292;23;20413;-81
2021/08/24 10:38:17;;;;;;;5.30;4.30;;;24.60;83.70;;;;;;5151767;23;20428;-81
2021/08/24 10:40:39;;;;;;;8.63;4.10;;;24.90;82.70;;;;;;5143533;23;20874;-81
2021/08/24 10:42:58;;;;;;;4.23;3.73;;;25.00;81.80;;;;;;5144243;23;20453;-81
2021/08/24 10:45:23;;;;;;;4.20;3.73;;;25.20;82.20;;;;;;5152500;23;20791;-81
2021/08/24 10:47:29;;;;;;;4.40;3.67;;;24.90;79.60;;;;;;5151368;23;20429;-81
2021/08/24 10:49:33;;;;;;;3.90;3.50;;;24.60;79.70;;;;;;5143822;23;20496;-81
2021/08/24 10:51:46;;;;;;;7.03;3.80;;;24.80;81.00;;;;;;5143182;23;20425;-80
2021/08/24 10:53:58;;;;;;;5.83;4.50;;;24.80;79.60;;;;;;5143381;23;20501;-81
2021/08/24 10:56:09;;;;;;;5.33;3.87;;;24.20;81.10;;;;;;5144273;23;20492;-81
2021/08/24 10:58:21;;;;;;;4.90;4.10;;;24.30;81.60;;;;;;5143414;23;20421;-81
2021/08/24 11:00:42;;;;;;;4.97;4.07;;;23.80;81.60;;;;;;5151524;23;20576;-81
2021/08/24 11:02:56;;;;;;;26.47;20.00;;;24.30;81.70;;;;;;5143823;23;20782;-81
2021/08/24 11:05:12;;;;;;;29.37;23.47;;;24.90;81.90;;;;;;5151336;23;20452;-81
2021/08/24 11:07:29;;;;;;;6.30;5.40;;;25.50;80.40;;;;;;5151975;23;20929;-81
2021/08/24 11:09:49;;;;;;;6.20;4.87;;;25.70;79.30;;;;;;5143881;23;20437;-81
2021/08/24 11:12:03;;;;;;;5.53;4.37;;;26.10;79.70;;;;;;5144264;23;20745;-81
2021/08/24 11:14:19;;;;;;;5.03;4.20;;;26.50;77.20;;;;;;5143820;23;20511;-81
2021/08/24 11:16:43;;;;;;;4.90;4.40;;;26.60;78.30;;;;;;5143726;23;20513;-81
